createdAt,value
2024-03-24T00:00:48.191Z,94450.00
2024-03-24T00:01:48.222Z,94451.00
2024-03-24T00:02:48.242Z,94448.00
2024-03-24T00:03:48.274Z,94448.00
2024-03-24T00:04:48.284Z,94450.00
2024-03-24T00:05:48.312Z,94449.00
2024-03-24T00:06:48.329Z,94447.00
2024-03-24T00:07:48.379Z,94446.00
2024-03-24T00:08:48.407Z,94447.00
2024-03-24T00:09:48.428Z,94447.00
2024-03-24T00:10:48.499Z,94446.00
2024-03-24T00:11:48.497Z,94447.00
2024-03-24T00:12:48.537Z,94447.00
2024-03-24T00:13:48.525Z,94448.00
2024-03-24T00:14:48.570Z,94446.00
2024-03-24T00:15:48.997Z,94446.00
2024-03-24T00:16:48.603Z,94447.00
2024-03-24T00:17:48.642Z,94449.00
2024-03-24T00:18:48.684Z,94447.00
2024-03-24T00:19:48.694Z,94444.00
2024-03-24T00:20:48.731Z,94441.00
2024-03-24T00:21:48.990Z,94441.00
2024-03-24T00:22:48.760Z,94442.00
2024-03-24T00:23:48.801Z,94442.00
2024-03-24T00:24:48.814Z,94442.00
2024-03-24T00:25:48.842Z,94443.00
2024-03-24T00:26:48.895Z,94443.00
2024-03-24T00:27:48.912Z,94445.00
2024-03-24T00:28:48.927Z,94445.00
2024-03-24T00:29:48.945Z,94447.00
2024-03-24T00:30:48.970Z,94447.00
2024-03-24T00:31:48.978Z,94447.00
2024-03-24T00:32:49.012Z,94445.00
2024-03-24T00:33:49.045Z,94446.00
2024-03-24T00:34:49.039Z,94445.00
2024-03-24T00:35:49.064Z,94447.00
2024-03-24T00:36:49.097Z,94446.00
2024-03-24T00:37:49.129Z,94448.00
2024-03-24T00:38:49.131Z,94447.00
2024-03-24T00:39:49.157Z,94446.00
2024-03-24T00:40:49.175Z,94443.00
2024-03-24T00:41:49.202Z,94443.00
2024-03-24T00:42:49.230Z,94441.00
2024-03-24T00:43:49.269Z,94441.00
2024-03-24T00:44:49.286Z,94438.00
2024-03-24T00:45:49.357Z,94440.00
2024-03-24T00:46:49.339Z,94439.00
2024-03-24T00:47:49.338Z,94438.00
2024-03-24T00:48:49.393Z,94443.00
2024-03-24T00:49:49.423Z,94442.00
2024-03-24T00:50:49.474Z,94441.00
2024-03-24T00:51:49.455Z,94437.00
2024-03-24T00:52:49.500Z,94435.00
2024-03-24T00:53:49.530Z,94432.00
2024-03-24T00:54:49.542Z,94433.00
2024-03-24T00:55:49.591Z,94431.00
2024-03-24T00:56:49.609Z,94430.00
2024-03-24T00:57:49.598Z,94427.00
2024-03-24T00:58:49.638Z,94422.00
2024-03-24T00:59:49.670Z,94419.00
2024-03-24T01:00:49.696Z,94419.00
2024-03-24T01:01:49.703Z,94419.00
2024-03-24T01:02:49.857Z,94418.00
2024-03-24T01:03:49.753Z,94416.00
2024-03-24T01:04:49.796Z,94414.00
2024-03-24T01:05:49.836Z,94412.00
2024-03-24T01:06:49.855Z,94411.00
2024-03-24T01:07:49.874Z,94411.00
2024-03-24T01:08:49.939Z,94411.00
2024-03-24T01:09:49.952Z,94410.00
2024-03-24T01:10:49.982Z,94409.00
2024-03-24T01:11:50.029Z,94409.00
2024-03-24T01:12:50.068Z,94408.00
2024-03-24T01:13:50.077Z,94407.00
2024-03-24T01:14:50.102Z,94403.00
2024-03-24T01:15:50.182Z,94401.00
2024-03-24T01:16:50.167Z,94400.00
2024-03-24T01:17:50.197Z,94398.00
2024-03-24T01:18:50.231Z,94399.00
2024-03-24T01:19:50.246Z,94394.00
2024-03-24T01:20:50.524Z,94391.00
2024-03-24T01:21:50.337Z,94388.00
2024-03-24T01:22:50.344Z,94388.00
2024-03-24T01:23:50.376Z,94387.00
2024-03-24T01:24:50.375Z,94383.00
2024-03-24T01:25:50.428Z,94383.00
2024-03-24T01:26:50.460Z,94382.00
2024-03-24T01:27:50.478Z,94379.00
2024-03-24T01:28:50.479Z,94379.00
2024-03-24T01:29:50.553Z,94380.00
2024-03-24T01:30:50.568Z,94381.00
2024-03-24T01:31:50.572Z,94381.00
2024-03-24T01:32:50.612Z,94382.00
2024-03-24T01:33:50.626Z,94382.00
2024-03-24T01:34:50.690Z,94381.00
2024-03-24T01:35:50.695Z,94382.00
2024-03-24T01:36:51.033Z,94383.00
2024-03-24T01:37:50.755Z,94382.00
2024-03-24T01:38:50.755Z,94381.00
2024-03-24T01:39:50.794Z,94376.00
2024-03-24T01:40:50.838Z,94379.00
2024-03-24T01:41:50.857Z,94378.00
2024-03-24T01:42:50.887Z,94380.00
2024-03-24T01:43:50.893Z,94378.00
2024-03-24T01:44:50.932Z,94373.00
2024-03-24T01:45:50.976Z,94371.00
2024-03-24T01:46:51.031Z,94371.00
2024-03-24T01:47:51.008Z,94370.00
2024-03-24T01:48:51.054Z,94368.00
2024-03-24T01:49:51.107Z,94368.00
2024-03-24T01:50:51.095Z,94365.00
2024-03-24T01:51:51.132Z,94367.00
2024-03-24T01:52:51.165Z,94367.00
2024-03-24T01:53:51.172Z,94364.00
2024-03-24T01:54:51.208Z,94366.00
2024-03-24T01:55:51.259Z,94365.00
2024-03-24T01:56:51.271Z,94364.00
2024-03-24T01:57:51.301Z,94363.00
2024-03-24T01:58:51.309Z,94361.00
2024-03-24T01:59:51.379Z,94358.00
2024-03-24T02:00:51.384Z,94356.00
2024-03-24T02:01:51.410Z,94356.00
2024-03-24T02:02:51.443Z,94358.00
2024-03-24T02:03:51.478Z,94358.00
2024-03-24T02:04:51.504Z,94362.00
2024-03-24T02:05:51.528Z,94363.00
2024-03-24T02:07:49.289Z,94362.00
2024-03-24T02:08:49.270Z,94360.00
2024-03-24T02:09:49.267Z,94357.00
2024-03-24T02:10:49.246Z,94355.00
2024-03-24T02:11:49.250Z,94351.00
2024-03-24T02:12:49.263Z,94349.00
2024-03-24T02:13:49.264Z,94343.00
2024-03-24T02:14:49.270Z,94339.00
2024-03-24T02:15:49.281Z,94337.00
2024-03-24T02:16:49.293Z,94337.00
2024-03-24T02:17:50.253Z,94334.00
2024-03-24T02:18:51.250Z,94332.00
2024-03-24T02:19:49.286Z,94332.00
2024-03-24T02:20:49.286Z,94333.00
2024-03-24T02:21:49.291Z,94334.00
2024-03-24T02:22:49.296Z,94333.00
2024-03-24T02:23:49.277Z,94335.00
2024-03-24T02:24:49.284Z,94335.00
2024-03-24T02:25:49.278Z,94336.00
2024-03-24T02:26:49.292Z,94336.00
2024-03-24T02:27:49.279Z,94330.00
2024-03-24T02:28:49.276Z,94325.00
2024-03-24T02:29:49.290Z,94318.00
2024-03-24T02:30:49.327Z,94308.00
2024-03-24T02:31:49.323Z,94301.00
2024-03-24T02:32:49.368Z,94294.00
2024-03-24T02:33:49.375Z,94297.00
2024-03-24T02:34:49.420Z,94299.00
2024-03-24T02:35:49.522Z,94299.00
2024-03-24T02:36:49.514Z,94299.00
2024-03-24T02:37:49.539Z,94302.00
2024-03-24T02:38:49.582Z,94301.00
2024-03-24T02:39:49.630Z,94301.00
2024-03-24T02:40:49.641Z,94297.00
2024-03-24T02:41:49.706Z,94294.00
2024-03-24T02:42:49.711Z,94295.00
2024-03-24T02:43:49.771Z,94297.00
2024-03-24T02:44:49.811Z,94296.00
2024-03-24T02:45:49.877Z,94294.00
2024-03-24T02:46:49.873Z,94289.00
2024-03-24T02:47:49.919Z,94286.00
2024-03-24T02:48:49.958Z,94284.00
2024-03-24T02:49:50.001Z,94280.00
2024-03-24T02:50:50.072Z,94277.00
2024-03-24T02:51:50.128Z,94277.00
2024-03-24T02:52:50.145Z,94277.00
2024-03-24T02:53:50.201Z,94279.00
2024-03-24T02:54:50.239Z,94280.00
2024-03-24T02:55:50.286Z,94280.00
2024-03-24T02:56:50.327Z,94281.00
2024-03-24T02:57:50.373Z,94282.00
2024-03-24T02:58:50.400Z,94280.00
2024-03-24T02:59:50.484Z,94278.00
2024-03-24T03:00:50.552Z,94279.00
2024-03-24T03:01:50.555Z,94276.00
2024-03-24T03:02:50.608Z,94278.00
2024-03-24T03:03:50.641Z,94276.00
2024-03-24T03:04:50.726Z,94273.00
2024-03-24T03:05:50.759Z,94273.00
2024-03-24T03:06:50.795Z,94270.00
2024-03-24T03:07:50.845Z,94267.00
2024-03-24T03:08:52.420Z,94265.00
2024-03-24T03:09:51.128Z,94264.00
2024-03-24T03:10:50.977Z,94266.00
2024-03-24T03:11:51.037Z,94266.00
2024-03-24T03:12:51.140Z,94268.00
2024-03-24T03:13:51.141Z,94268.00
2024-03-24T03:14:51.167Z,94266.00
2024-03-24T03:15:51.222Z,94266.00
2024-03-24T03:16:51.300Z,94262.00
2024-03-24T03:17:51.329Z,94260.00
2024-03-24T03:18:51.372Z,94256.00
2024-03-24T03:19:51.440Z,94249.00
2024-03-24T03:20:51.488Z,94247.00
2024-03-24T03:21:51.513Z,94247.00
2024-03-24T03:22:57.405Z,94247.00
2024-03-24T03:23:52.399Z,94246.00
2024-03-24T03:24:51.491Z,94244.00
2024-03-24T03:25:51.485Z,94245.00
2024-03-24T03:26:51.503Z,94243.00
2024-03-24T03:27:51.508Z,94244.00
2024-03-24T03:28:51.513Z,94245.00
2024-03-24T03:29:51.520Z,94246.00
2024-03-24T03:30:51.480Z,94243.00
2024-03-24T03:31:51.509Z,94243.00
2024-03-24T03:32:51.491Z,94242.00
2024-03-24T03:33:51.490Z,94241.00
2024-03-24T03:34:51.516Z,94242.00
2024-03-24T03:35:52.515Z,94242.00
2024-03-24T03:36:51.525Z,94241.00
2024-03-24T03:37:51.507Z,94239.00
2024-03-24T03:38:51.521Z,94234.00
2024-03-24T03:39:51.532Z,94232.00
2024-03-24T03:40:51.546Z,94225.00
2024-03-24T03:41:51.507Z,94218.00
2024-03-24T03:42:51.500Z,94215.00
2024-03-24T03:43:51.512Z,94214.00
2024-03-24T03:44:51.536Z,94214.00
2024-03-24T03:45:51.517Z,94216.00
2024-03-24T03:46:51.952Z,94215.00
2024-03-24T03:47:52.533Z,94219.00
2024-03-24T03:48:51.550Z,94216.00
2024-03-24T03:49:51.579Z,94216.00
2024-03-24T03:50:51.569Z,94216.00
2024-03-24T03:51:51.705Z,94216.00
2024-03-24T03:52:51.626Z,94213.00
2024-03-24T03:53:51.640Z,94213.00
2024-03-24T03:54:51.629Z,94209.00
2024-03-24T03:55:51.644Z,94208.00
2024-03-24T03:56:51.657Z,94210.00
2024-03-24T03:57:51.630Z,94209.00
2024-03-24T03:58:51.629Z,94210.00
2024-03-24T03:59:51.632Z,94211.00
2024-03-24T04:00:52.644Z,94209.00
2024-03-24T04:01:51.635Z,94212.00
2024-03-24T04:02:52.429Z,94210.00
2024-03-24T04:03:51.723Z,94211.00
2024-03-24T04:04:52.769Z,94212.00
2024-03-24T04:05:51.772Z,94213.00
2024-03-24T04:06:51.950Z,94215.00
2024-03-24T04:07:52.405Z,94217.00
2024-03-24T04:08:51.907Z,94219.00
2024-03-24T04:09:51.947Z,94216.00
2024-03-24T04:10:51.995Z,94215.00
2024-03-24T04:11:52.021Z,94213.00
2024-03-24T04:12:52.095Z,94214.00
2024-03-24T04:13:52.123Z,94209.00
2024-03-24T04:14:52.214Z,94208.00
2024-03-24T04:15:52.230Z,94208.00
2024-03-24T04:16:52.263Z,94206.00
2024-03-24T04:17:52.928Z,94204.00
2024-03-24T04:18:52.335Z,94205.00
2024-03-24T04:19:52.394Z,94205.00
2024-03-24T04:20:54.443Z,94206.00
2024-03-24T04:21:52.475Z,94207.00
2024-03-24T04:22:53.436Z,94206.00
2024-03-24T04:23:52.552Z,94205.00
2024-03-24T04:24:52.588Z,94203.00
2024-03-24T04:25:52.632Z,94202.00
2024-03-24T04:26:52.955Z,94203.00
2024-03-24T04:27:52.718Z,94205.00
2024-03-24T04:28:52.762Z,94207.00
2024-03-24T04:29:52.807Z,94209.00
2024-03-24T04:30:52.845Z,94212.00
2024-03-24T04:31:52.888Z,94214.00
2024-03-24T04:33:00.173Z,94217.00
2024-03-24T04:34:00.171Z,94216.00
2024-03-24T04:35:01.293Z,94213.00
2024-03-24T04:36:00.177Z,94214.00
2024-03-24T04:37:00.199Z,94211.00
2024-03-24T04:38:00.208Z,94210.00
2024-03-24T04:39:00.154Z,94209.00
2024-03-24T04:40:00.289Z,94208.00
2024-03-24T04:41:00.173Z,94207.00
2024-03-24T04:42:00.196Z,94205.00
2024-03-24T04:43:00.180Z,94202.00
2024-03-24T04:44:00.217Z,94200.00
2024-03-24T04:45:00.232Z,94197.00
2024-03-24T04:46:00.177Z,94197.00
2024-03-24T04:47:00.278Z,94195.00
2024-03-24T04:48:00.162Z,94194.00
2024-03-24T04:49:00.223Z,94197.00
2024-03-24T04:50:00.215Z,94199.00
2024-03-24T04:51:00.353Z,94201.00
2024-03-24T04:52:00.823Z,94201.00
2024-03-24T04:53:00.194Z,94203.00
2024-03-24T04:54:00.162Z,94205.00
2024-03-24T04:55:00.200Z,94205.00
2024-03-24T04:56:00.179Z,94205.00
2024-03-24T04:57:00.245Z,94205.00
2024-03-24T04:58:00.187Z,94202.00
2024-03-24T04:59:00.190Z,94203.00
2024-03-24T05:00:00.281Z,94203.00
2024-03-24T05:01:00.159Z,94201.00
2024-03-24T05:02:00.220Z,94204.00
2024-03-24T05:03:00.185Z,94202.00
2024-03-24T05:04:00.270Z,94198.00
2024-03-24T05:05:00.249Z,94194.00
2024-03-24T05:06:00.232Z,94193.00
2024-03-24T05:07:00.295Z,94191.00
2024-03-24T05:08:00.359Z,94194.00
2024-03-24T05:09:00.408Z,94195.00
2024-03-24T05:10:00.542Z,94199.00
2024-03-24T05:11:00.480Z,94201.00
2024-03-24T05:12:00.781Z,94200.00
2024-03-24T05:13:00.506Z,94202.00
2024-03-24T05:14:00.559Z,94200.00
2024-03-24T05:15:00.623Z,94197.00
2024-03-24T05:16:00.627Z,94197.00
2024-03-24T05:17:00.683Z,94198.00
2024-03-24T05:18:00.729Z,94198.00
2024-03-24T05:19:00.751Z,94200.00
2024-03-24T05:20:00.789Z,94203.00
2024-03-24T05:21:00.832Z,94205.00
2024-03-24T05:22:01.289Z,94208.00
2024-03-24T05:23:00.895Z,94209.00
2024-03-24T05:24:00.975Z,94213.00
2024-03-24T05:25:00.972Z,94213.00
2024-03-24T05:26:01.014Z,94210.00
2024-03-24T05:27:01.064Z,94211.00
2024-03-24T05:28:01.096Z,94212.00
2024-03-24T05:29:02.098Z,94214.00
2024-03-24T05:30:01.125Z,94213.00
2024-03-24T05:31:01.102Z,94212.00
2024-03-24T05:32:01.300Z,94209.00
2024-03-24T05:33:01.114Z,94201.00
2024-03-24T05:34:01.126Z,94193.00
2024-03-24T05:35:01.174Z,94194.00
2024-03-24T05:36:01.142Z,94194.00
2024-03-24T05:37:01.302Z,94195.00
2024-03-24T05:38:01.105Z,94195.00
2024-03-24T05:39:01.124Z,94198.00
2024-03-24T05:40:01.125Z,94198.00
2024-03-24T05:41:03.809Z,94200.00
2024-03-24T05:42:01.149Z,94204.00
2024-03-24T05:43:01.120Z,94208.00
2024-03-24T05:44:01.207Z,94209.00
2024-03-24T05:45:01.147Z,94211.00
2024-03-24T05:46:01.157Z,94212.00
2024-03-24T05:47:01.130Z,94212.00
2024-03-24T05:48:01.168Z,94211.00
2024-03-24T05:49:01.150Z,94212.00
2024-03-24T05:50:01.167Z,94213.00
2024-03-24T05:51:01.146Z,94212.00
2024-03-24T05:52:01.180Z,94213.00
2024-03-24T05:53:01.151Z,94213.00
2024-03-24T05:54:01.801Z,94213.00
2024-03-24T05:55:01.157Z,94212.00
2024-03-24T05:56:01.176Z,94209.00
2024-03-24T05:57:01.352Z,94207.00
2024-03-24T05:58:01.177Z,94207.00
2024-03-24T05:59:01.224Z,94206.00
2024-03-24T06:00:01.178Z,94213.00
2024-03-24T06:01:01.173Z,94215.00
2024-03-24T06:02:01.179Z,94218.00
2024-03-24T06:03:01.189Z,94220.00
2024-03-24T06:04:01.183Z,94221.00
2024-03-24T06:05:02.214Z,94222.00
2024-03-24T06:06:01.214Z,94220.00
2024-03-24T06:07:01.821Z,94223.00
2024-03-24T06:08:01.202Z,94225.00
2024-03-24T06:09:01.207Z,94227.00
2024-03-24T06:10:01.194Z,94226.00
2024-03-24T06:11:01.189Z,94227.00
2024-03-24T06:12:01.178Z,94228.00
2024-03-24T06:13:01.197Z,94230.00
2024-03-24T06:14:01.205Z,94233.00
2024-03-24T06:15:01.200Z,94233.00
2024-03-24T06:16:01.213Z,94231.00
2024-03-24T06:17:01.196Z,94232.00
2024-03-24T06:18:01.187Z,94230.00
2024-03-24T06:19:01.201Z,94233.00
2024-03-24T06:20:01.201Z,94237.00
2024-03-24T06:21:01.221Z,94238.00
2024-03-24T06:22:01.313Z,94235.00
2024-03-24T06:23:01.219Z,94235.00
2024-03-24T06:24:01.194Z,94235.00
2024-03-24T06:25:01.188Z,94237.00
2024-03-24T06:26:01.288Z,94240.00
2024-03-24T06:27:01.339Z,94242.00
2024-03-24T06:28:01.400Z,94242.00
2024-03-24T06:29:01.452Z,94242.00
2024-03-24T06:30:02.507Z,94241.00
2024-03-24T06:31:01.472Z,94242.00
2024-03-24T06:32:01.839Z,94241.00
2024-03-24T06:33:01.463Z,94242.00
2024-03-24T06:34:01.486Z,94240.00
2024-03-24T06:35:01.480Z,94242.00
2024-03-24T06:36:01.456Z,94244.00
2024-03-24T06:37:03.295Z,94247.00
2024-03-24T06:38:01.480Z,94246.00
2024-03-24T06:39:01.565Z,94248.00
2024-03-24T06:40:01.668Z,94249.00
2024-03-24T06:41:01.732Z,94250.00
2024-03-24T06:42:01.750Z,94254.00
2024-03-24T06:43:01.819Z,94256.00
2024-03-24T06:44:01.877Z,94258.00
2024-03-24T06:45:01.948Z,94258.00
2024-03-24T06:46:01.982Z,94260.00
2024-03-24T06:47:02.342Z,94260.00
2024-03-24T06:48:02.113Z,94258.00
2024-03-24T06:49:02.208Z,94259.00
2024-03-24T06:50:02.267Z,94260.00
2024-03-24T06:51:02.296Z,94260.00
2024-03-24T06:52:02.380Z,94260.00
2024-03-24T06:53:02.447Z,94257.00
2024-03-24T06:54:02.488Z,94254.00
2024-03-24T06:55:02.589Z,94252.00
2024-03-24T06:56:02.636Z,94252.00
2024-03-24T06:57:02.711Z,94253.00
2024-03-24T06:58:02.769Z,94256.00
2024-03-24T06:59:02.841Z,94259.00
2024-03-24T07:00:02.885Z,94258.00
2024-03-24T07:01:02.966Z,94261.00
2024-03-24T07:02:03.334Z,94261.00
2024-03-24T07:03:03.092Z,94262.00
2024-03-24T07:04:03.183Z,94264.00
2024-03-24T07:05:03.249Z,94265.00
2024-03-24T07:06:03.322Z,94264.00
2024-03-24T07:07:03.382Z,94264.00
2024-03-24T07:08:03.433Z,94264.00
2024-03-24T07:09:03.503Z,94264.00
2024-03-24T07:10:05.174Z,94267.00
2024-03-24T07:11:03.633Z,94266.00
2024-03-24T07:12:03.811Z,94267.00
2024-03-24T07:13:04.335Z,94268.00
2024-03-24T07:14:04.850Z,94268.00
2024-03-24T07:15:03.924Z,94268.00
2024-03-24T07:16:03.963Z,94271.00
2024-03-24T07:17:04.334Z,94271.00
2024-03-24T07:18:04.207Z,94269.00
2024-03-24T07:19:04.167Z,94270.00
2024-03-24T07:20:04.232Z,94267.00
2024-03-24T07:21:04.289Z,94266.00
2024-03-24T07:22:04.384Z,94267.00
2024-03-24T07:23:04.450Z,94265.00
2024-03-24T07:24:04.513Z,94266.00
2024-03-24T07:25:04.551Z,94266.00
2024-03-24T07:26:04.629Z,94265.00
2024-03-24T07:27:04.831Z,94266.00
2024-03-24T07:28:04.737Z,94266.00
2024-03-24T07:29:04.813Z,94270.00
2024-03-24T07:30:04.871Z,94273.00
2024-03-24T07:31:04.984Z,94276.00
2024-03-24T07:32:05.031Z,94278.00
2024-03-24T07:33:05.081Z,94278.00
2024-03-24T07:34:05.153Z,94281.00
2024-03-24T07:35:05.192Z,94285.00
2024-03-24T07:36:05.311Z,94286.00
2024-03-24T07:37:05.841Z,94289.00
2024-03-24T07:38:05.428Z,94290.00
2024-03-24T07:39:05.479Z,94290.00
2024-03-24T07:40:05.540Z,94286.00
2024-03-24T07:41:05.612Z,94284.00
2024-03-24T07:42:05.678Z,94282.00
2024-03-24T07:43:05.734Z,94283.00
2024-03-24T07:44:05.798Z,94283.00
2024-03-24T07:45:05.843Z,94285.00
2024-03-24T07:46:05.939Z,94283.00
2024-03-24T07:47:06.374Z,94280.00
2024-03-24T07:48:06.071Z,94276.00
2024-03-24T07:49:06.131Z,94269.00
2024-03-24T07:50:06.842Z,94266.00
2024-03-24T07:51:06.279Z,94262.00
2024-03-24T07:52:06.345Z,94258.00
2024-03-24T07:53:06.390Z,94255.00
2024-03-24T07:54:06.442Z,94253.00
2024-03-24T07:55:06.512Z,94254.00
2024-03-24T07:56:06.594Z,94255.00
2024-03-24T07:57:06.654Z,94257.00
2024-03-24T07:58:06.692Z,94258.00
2024-03-24T07:59:06.785Z,94259.00
2024-03-24T08:00:06.873Z,94260.00
2024-03-24T08:01:06.928Z,94262.00
2024-03-24T08:02:07.344Z,94260.00
2024-03-24T08:03:07.052Z,94262.00
2024-03-24T08:04:07.147Z,94262.00
2024-03-24T08:05:07.336Z,94263.00
2024-03-24T08:06:07.258Z,94264.00
2024-03-24T08:07:07.334Z,94266.00
2024-03-24T08:08:07.406Z,94266.00
2024-03-24T08:09:07.466Z,94266.00
2024-03-24T08:10:07.516Z,94264.00
2024-03-24T08:11:07.610Z,94265.00
2024-03-24T08:12:08.699Z,94262.00
2024-03-24T08:13:07.720Z,94262.00
2024-03-24T08:14:07.789Z,94262.00
2024-03-24T08:15:07.857Z,94258.00
2024-03-24T08:16:07.937Z,94261.00
2024-03-24T08:17:08.358Z,94259.00
2024-03-24T08:18:08.058Z,94258.00
2024-03-24T08:19:08.155Z,94259.00
2024-03-24T08:20:08.182Z,94259.00
2024-03-24T08:21:08.294Z,94260.00
2024-03-24T08:22:08.341Z,94259.00
2024-03-24T08:23:08.409Z,94261.00
2024-03-24T08:24:08.467Z,94260.00
2024-03-24T08:25:08.524Z,94257.00
2024-03-24T08:26:08.576Z,94258.00
2024-03-24T08:27:08.644Z,94258.00
2024-03-24T08:28:08.706Z,94258.00
2024-03-24T08:29:08.756Z,94257.00
2024-03-24T08:30:08.840Z,94259.00
2024-03-24T08:31:08.879Z,94260.00
2024-03-24T08:32:08.966Z,94260.00
2024-03-24T08:33:09.029Z,94259.00
2024-03-24T08:34:09.075Z,94259.00
2024-03-24T08:35:09.160Z,94259.00
2024-03-24T08:36:09.218Z,94259.00
2024-03-24T08:37:09.340Z,94259.00
2024-03-24T08:38:09.359Z,94262.00
2024-03-24T08:39:09.413Z,94263.00
2024-03-24T08:40:09.497Z,94265.00
2024-03-24T08:41:09.538Z,94266.00
2024-03-24T08:42:09.675Z,94267.00
2024-03-24T08:43:09.717Z,94273.00
2024-03-24T08:44:09.856Z,94272.00
2024-03-24T08:45:09.922Z,94277.00
2024-03-24T08:46:09.904Z,94278.00
2024-03-24T08:47:10.014Z,94283.00
2024-03-24T08:48:10.086Z,94286.00
2024-03-24T08:49:10.138Z,94288.00
2024-03-24T08:50:10.215Z,94290.00
2024-03-24T08:51:10.283Z,94293.00
2024-03-24T08:52:10.863Z,94292.00
2024-03-24T08:53:10.428Z,94296.00
2024-03-24T08:54:10.486Z,94297.00
2024-03-24T08:55:10.599Z,94297.00
2024-03-24T08:56:10.636Z,94297.00
2024-03-24T08:57:10.868Z,94297.00
2024-03-24T08:58:10.793Z,94297.00
2024-03-24T08:59:10.857Z,94297.00
2024-03-24T09:00:10.931Z,94297.00
2024-03-24T09:01:10.998Z,94300.00
2024-03-24T09:02:11.088Z,94303.00
2024-03-24T09:03:13.859Z,94303.00
2024-03-24T09:04:11.133Z,94303.00
2024-03-24T09:05:11.136Z,94301.00
2024-03-24T09:06:11.133Z,94305.00
2024-03-24T09:07:11.390Z,94305.00
2024-03-24T09:08:11.144Z,94308.00
2024-03-24T09:09:11.130Z,94310.00
2024-03-24T09:10:11.140Z,94311.00
2024-03-24T09:11:11.146Z,94309.00
2024-03-24T09:12:11.153Z,94310.00
2024-03-24T09:13:11.163Z,94309.00
2024-03-24T09:14:11.227Z,94312.00
2024-03-24T09:15:11.133Z,94312.00
2024-03-24T09:16:11.141Z,94313.00
2024-03-24T09:17:11.362Z,94314.00
2024-03-24T09:18:11.196Z,94315.00
2024-03-24T09:19:11.231Z,94314.00
2024-03-24T09:20:11.207Z,94314.00
2024-03-24T09:21:11.203Z,94314.00
2024-03-24T09:22:15.886Z,94315.00
2024-03-24T09:23:11.176Z,94314.00
2024-03-24T09:24:16.898Z,94316.00
2024-03-24T09:25:11.202Z,94313.00
2024-03-24T09:26:11.151Z,94312.00
2024-03-24T09:27:11.369Z,94313.00
2024-03-24T09:28:11.169Z,94314.00
2024-03-24T09:29:11.191Z,94316.00
2024-03-24T09:30:11.187Z,94317.00
2024-03-24T09:31:11.163Z,94319.00
2024-03-24T09:32:11.178Z,94314.00
2024-03-24T09:33:11.179Z,94314.00
2024-03-24T09:34:11.870Z,94316.00
2024-03-24T09:35:13.513Z,94317.00
2024-03-24T09:36:11.862Z,94316.00
2024-03-24T09:37:11.907Z,94315.00
2024-03-24T09:38:11.467Z,94317.00
2024-03-24T09:39:12.378Z,94321.00
2024-03-24T09:40:11.593Z,94324.00
2024-03-24T09:41:12.580Z,94323.00
2024-03-24T09:42:11.601Z,94328.00
2024-03-24T09:43:11.602Z,94330.00
2024-03-24T09:44:11.624Z,94332.00
2024-03-24T09:45:11.625Z,94331.00
2024-03-24T09:46:11.619Z,94332.00
2024-03-24T09:47:11.609Z,94331.00
2024-03-24T09:48:11.616Z,94332.00
2024-03-24T09:49:11.637Z,94333.00
2024-03-24T09:50:11.623Z,94332.00
2024-03-24T09:51:11.655Z,94335.00
2024-03-24T09:52:11.894Z,94339.00
2024-03-24T09:53:11.657Z,94339.00
2024-03-24T09:54:11.660Z,94340.00
2024-03-24T09:55:11.726Z,94339.00
2024-03-24T09:56:11.787Z,94339.00
2024-03-24T09:57:11.823Z,94337.00
2024-03-24T09:58:12.981Z,94331.00
2024-03-24T09:59:11.926Z,94327.00
2024-03-24T10:00:11.968Z,94324.00
2024-03-24T10:01:12.001Z,94325.00
2024-03-24T10:02:12.391Z,94326.00
2024-03-24T10:03:12.140Z,94326.00
2024-03-24T10:04:12.183Z,94326.00
2024-03-24T10:05:12.256Z,94327.00
2024-03-24T10:06:12.299Z,94325.00
2024-03-24T10:07:12.331Z,94325.00
2024-03-24T10:08:12.373Z,94322.00
2024-03-24T10:09:12.434Z,94320.00
2024-03-24T10:10:12.459Z,94320.00
2024-03-24T10:11:12.522Z,94321.00
2024-03-24T10:12:12.874Z,94318.00
2024-03-24T10:13:12.674Z,94317.00
2024-03-24T10:14:12.692Z,94313.00
2024-03-24T10:15:12.759Z,94311.00
2024-03-24T10:16:12.791Z,94309.00
2024-03-24T10:17:16.011Z,94306.00
2024-03-24T10:18:12.865Z,94310.00
2024-03-24T10:19:12.868Z,94311.00
2024-03-24T10:20:12.868Z,94310.00
2024-03-24T10:21:12.861Z,94307.00
2024-03-24T10:22:12.883Z,94303.00
2024-03-24T10:23:12.857Z,94301.00
2024-03-24T10:24:12.874Z,94297.00
2024-03-24T10:25:12.858Z,94297.00
2024-03-24T10:26:12.914Z,94300.00
2024-03-24T10:27:12.996Z,94305.00
2024-03-24T10:28:13.025Z,94303.00
2024-03-24T10:29:13.105Z,94305.00
2024-03-24T10:30:13.196Z,94305.00
2024-03-24T10:31:13.238Z,94304.00
2024-03-24T10:32:23.578Z,94302.00
2024-03-24T10:33:14.287Z,94301.00
2024-03-24T10:34:13.272Z,94300.00
2024-03-24T10:35:13.293Z,94298.00
2024-03-24T10:36:13.291Z,94295.00
2024-03-24T10:37:13.405Z,94294.00
2024-03-24T10:38:13.264Z,94292.00
2024-03-24T10:39:13.283Z,94286.00
2024-03-24T10:40:13.289Z,94282.00
2024-03-24T10:41:13.285Z,94284.00
2024-03-24T10:42:13.319Z,94286.00
2024-03-24T10:43:13.920Z,94286.00
2024-03-24T10:44:13.301Z,94288.00
2024-03-24T10:45:13.337Z,94287.00
2024-03-24T10:46:13.362Z,94287.00
2024-03-24T10:47:13.880Z,94285.00
2024-03-24T10:48:13.478Z,94285.00
2024-03-24T10:49:13.569Z,94283.00
2024-03-24T10:50:13.604Z,94280.00
2024-03-24T10:51:13.699Z,94281.00
2024-03-24T10:52:13.922Z,94281.00
2024-03-24T10:53:13.786Z,94280.00
2024-03-24T10:54:13.850Z,94278.00
2024-03-24T10:55:13.906Z,94276.00
2024-03-24T10:56:14.002Z,94278.00
2024-03-24T10:57:14.390Z,94274.00
2024-03-24T10:58:14.063Z,94268.00
2024-03-24T10:59:14.146Z,94266.00
2024-03-24T11:00:14.189Z,94263.00
2024-03-24T11:01:14.267Z,94267.00
2024-03-24T11:02:14.427Z,94272.00
2024-03-24T11:03:14.361Z,94267.00
2024-03-24T11:04:14.453Z,94271.00
2024-03-24T11:05:15.192Z,94264.00
2024-03-24T11:06:15.948Z,94260.00
2024-03-24T11:07:14.931Z,94261.00
2024-03-24T11:08:14.710Z,94263.00
2024-03-24T11:09:14.784Z,94263.00
2024-03-24T11:10:14.859Z,94261.00
2024-03-24T11:11:14.948Z,94261.00
2024-03-24T11:12:17.109Z,94259.00
2024-03-24T11:13:15.000Z,94261.00
2024-03-24T11:14:15.031Z,94261.00
2024-03-24T11:15:15.008Z,94260.00
2024-03-24T11:16:15.023Z,94260.00
2024-03-24T11:17:15.418Z,94262.00
2024-03-24T11:18:15.014Z,94261.00
2024-03-24T11:19:15.025Z,94260.00
2024-03-24T11:20:15.034Z,94256.00
2024-03-24T11:21:15.004Z,94250.00
2024-03-24T11:22:15.055Z,94252.00
2024-03-24T11:23:15.043Z,94253.00
2024-03-24T11:24:15.047Z,94253.00
2024-03-24T11:25:15.023Z,94250.00
2024-03-24T11:26:15.038Z,94251.00
2024-03-24T11:27:15.022Z,94247.00
2024-03-24T11:28:15.023Z,94251.00
2024-03-24T11:29:15.031Z,94254.00
2024-03-24T11:30:15.052Z,94251.00
2024-03-24T11:31:15.054Z,94253.00
2024-03-24T11:32:15.416Z,94254.00
2024-03-24T11:33:15.037Z,94252.00
2024-03-24T11:34:15.044Z,94249.00
2024-03-24T11:35:15.147Z,94246.00
2024-03-24T11:36:15.052Z,94245.00
2024-03-24T11:37:15.412Z,94247.00
2024-03-24T11:38:15.068Z,94244.00
2024-03-24T11:39:15.046Z,94244.00
2024-03-24T11:40:15.061Z,94245.00
2024-03-24T11:41:15.069Z,94247.00
2024-03-24T11:42:15.082Z,94248.00
2024-03-24T11:43:15.081Z,94245.00
2024-03-24T11:44:15.148Z,94247.00
2024-03-24T11:45:15.246Z,94243.00
2024-03-24T11:46:15.251Z,94241.00